sensor_id;sensor_type;location;lat;lon;timestamp;P1;durP1;ratioP1;P2;durP2;ratioP2
30519;SDS011;17300;50.374;8.006;2022-08-21T00:00:16;2.17;;;1.60;;
30519;SDS011;17300;50.374;8.006;2022-08-21T00:02:46;3.13;;;1.80;;
30519;SDS011;17300;50.374;8.006;2022-08-21T00:05:14;1.63;;;1.53;;
30519;SDS011;17300;50.374;8.006;2022-08-21T00:07:41;2.10;;;1.83;;
30519;SDS011;17300;50.374;8.006;2022-08-21T00:10:09;2.10;;;1.60;;
30519;SDS011;17300;50.374;8.006;2022-08-21T00:12:37;2.90;;;1.77;;
30519;SDS011;17300;50.374;8.006;2022-08-21T00:15:04;2.57;;;1.77;;
30519;SDS011;17300;50.374;8.006;2022-08-21T00:17:33;2.37;;;1.80;;
30519;SDS011;17300;50.374;8.006;2022-08-21T00:20:00;2.93;;;1.80;;
30519;SDS011;17300;50.374;8.006;2022-08-21T00:22:27;2.57;;;1.63;;
30519;SDS011;17300;50.374;8.006;2022-08-21T00:24:54;3.30;;;1.90;;
30519;SDS011;17300;50.374;8.006;2022-08-21T00:27:22;2.30;;;1.57;;
30519;SDS011;17300;50.374;8.006;2022-08-21T00:29:49;2.30;;;1.93;;
30519;SDS011;17300;50.374;8.006;2022-08-21T00:32:19;2.13;;;1.67;;
30519;SDS011;17300;50.374;8.006;2022-08-21T00:34:46;3.03;;;1.70;;
30519;SDS011;17300;50.374;8.006;2022-08-21T00:37:13;2.93;;;1.83;;
30519;SDS011;17300;50.374;8.006;2022-08-21T00:39:40;1.90;;;1.70;;
30519;SDS011;17300;50.374;8.006;2022-08-21T00:42:07;2.13;;;1.73;;
30519;SDS011;17300;50.374;8.006;2022-08-21T00:44:35;2.80;;;1.80;;
30519;SDS011;17300;50.374;8.006;2022-08-21T00:47:02;2.40;;;1.63;;
30519;SDS011;17300;50.374;8.006;2022-08-21T00:49:29;2.20;;;1.73;;
30519;SDS011;17300;50.374;8.006;2022-08-21T00:51:57;3.53;;;1.80;;
30519;SDS011;17300;50.374;8.006;2022-08-21T00:54:26;3.60;;;1.70;;
30519;SDS011;17300;50.374;8.006;2022-08-21T00:56:57;3.03;;;2.23;;
30519;SDS011;17300;50.374;8.006;2022-08-21T00:59:27;1.90;;;1.70;;
30519;SDS011;17300;50.374;8.006;2022-08-21T01:01:57;1.70;;;1.60;;
30519;SDS011;17300;50.374;8.006;2022-08-21T01:04:24;1.93;;;1.73;;
30519;SDS011;17300;50.374;8.006;2022-08-21T01:06:51;2.77;;;1.77;;
30519;SDS011;17300;50.374;8.006;2022-08-21T01:09:18;2.10;;;1.70;;
30519;SDS011;17300;50.374;8.006;2022-08-21T01:11:45;2.97;;;1.80;;
30519;SDS011;17300;50.374;8.006;2022-08-21T01:14:13;3.23;;;1.80;;
30519;SDS011;17300;50.374;8.006;2022-08-21T01:16:41;3.03;;;1.70;;
30519;SDS011;17300;50.374;8.006;2022-08-21T01:19:11;2.10;;;1.63;;
30519;SDS011;17300;50.374;8.006;2022-08-21T01:21:40;2.27;;;1.97;;
30519;SDS011;17300;50.374;8.006;2022-08-21T01:24:08;2.10;;;1.70;;
30519;SDS011;17300;50.374;8.006;2022-08-21T01:26:35;2.77;;;1.60;;
30519;SDS011;17300;50.374;8.006;2022-08-21T01:29:05;1.87;;;1.70;;
30519;SDS011;17300;50.374;8.006;2022-08-21T01:31:35;2.17;;;1.50;;
30519;SDS011;17300;50.374;8.006;2022-08-21T01:34:02;3.37;;;2.07;;
30519;SDS011;17300;50.374;8.006;2022-08-21T01:36:30;2.20;;;1.80;;
30519;SDS011;17300;50.374;8.006;2022-08-21T01:41:27;2.40;;;1.83;;
30519;SDS011;17300;50.374;8.006;2022-08-21T01:43:54;2.57;;;2.00;;
30519;SDS011;17300;50.374;8.006;2022-08-21T01:46:21;2.00;;;1.67;;
30519;SDS011;17300;50.374;8.006;2022-08-21T01:48:48;1.97;;;1.77;;
30519;SDS011;17300;50.374;8.006;2022-08-21T01:51:15;2.57;;;1.70;;
30519;SDS011;17300;50.374;8.006;2022-08-21T01:53:42;2.20;;;1.60;;
30519;SDS011;17300;50.374;8.006;2022-08-21T01:56:10;2.30;;;2.10;;
30519;SDS011;17300;50.374;8.006;2022-08-21T01:58:41;1.83;;;1.40;;
30519;SDS011;17300;50.374;8.006;2022-08-21T02:01:10;3.30;;;1.63;;
30519;SDS011;17300;50.374;8.006;2022-08-21T02:03:37;3.17;;;2.10;;
30519;SDS011;17300;50.374;8.006;2022-08-21T02:06:04;2.13;;;1.90;;
30519;SDS011;17300;50.374;8.006;2022-08-21T02:08:33;2.00;;;1.63;;
30519;SDS011;17300;50.374;8.006;2022-08-21T02:11:00;2.97;;;2.00;;
30519;SDS011;17300;50.374;8.006;2022-08-21T02:13:27;2.70;;;1.80;;
30519;SDS011;17300;50.374;8.006;2022-08-21T02:15:55;1.87;;;1.63;;
30519;SDS011;17300;50.374;8.006;2022-08-21T02:18:22;2.07;;;1.80;;
30519;SDS011;17300;50.374;8.006;2022-08-21T02:20:48;3.13;;;1.87;;
30519;SDS011;17300;50.374;8.006;2022-08-21T02:23:16;2.93;;;1.97;;
30519;SDS011;17300;50.374;8.006;2022-08-21T02:25:43;3.97;;;1.93;;
30519;SDS011;17300;50.374;8.006;2022-08-21T02:28:12;2.00;;;1.70;;
30519;SDS011;17300;50.374;8.006;2022-08-21T02:30:41;2.20;;;1.70;;
30519;SDS011;17300;50.374;8.006;2022-08-21T02:33:10;2.73;;;1.90;;
30519;SDS011;17300;50.374;8.006;2022-08-21T02:35:38;2.67;;;1.70;;
30519;SDS011;17300;50.374;8.006;2022-08-21T02:38:08;2.00;;;1.80;;
30519;SDS011;17300;50.374;8.006;2022-08-21T02:40:37;3.47;;;1.93;;
30519;SDS011;17300;50.374;8.006;2022-08-21T02:43:06;2.33;;;1.90;;
30519;SDS011;17300;50.374;8.006;2022-08-21T02:45:33;2.20;;;1.77;;
30519;SDS011;17300;50.374;8.006;2022-08-21T02:48:01;2.40;;;1.90;;
30519;SDS011;17300;50.374;8.006;2022-08-21T02:50:33;3.27;;;2.00;;
30519;SDS011;17300;50.374;8.006;2022-08-21T02:53:02;2.30;;;1.90;;
30519;SDS011;17300;50.374;8.006;2022-08-21T02:55:30;2.37;;;1.80;;
30519;SDS011;17300;50.374;8.006;2022-08-21T02:57:57;2.30;;;1.83;;
30519;SDS011;17300;50.374;8.006;2022-08-21T03:00:26;1.53;;;1.43;;
30519;SDS011;17300;50.374;8.006;2022-08-21T03:02:55;2.57;;;1.83;;
30519;SDS011;17300;50.374;8.006;2022-08-21T03:05:22;2.17;;;1.60;;
30519;SDS011;17300;50.374;8.006;2022-08-21T03:07:52;3.27;;;2.13;;
30519;SDS011;17300;50.374;8.006;2022-08-21T03:10:20;2.37;;;1.70;;
30519;SDS011;17300;50.374;8.006;2022-08-21T03:12:48;2.67;;;1.90;;
30519;SDS011;17300;50.374;8.006;2022-08-21T03:15:16;2.90;;;2.00;;
30519;SDS011;17300;50.374;8.006;2022-08-21T03:17:44;3.57;;;2.00;;
30519;SDS011;17300;50.374;8.006;2022-08-21T03:20:13;2.40;;;2.00;;
30519;SDS011;17300;50.374;8.006;2022-08-21T03:22:41;1.80;;;1.67;;
30519;SDS011;17300;50.374;8.006;2022-08-21T03:25:09;2.10;;;1.90;;
30519;SDS011;17300;50.374;8.006;2022-08-21T03:27:36;2.13;;;1.80;;
30519;SDS011;17300;50.374;8.006;2022-08-21T03:30:04;2.80;;;1.80;;
30519;SDS011;17300;50.374;8.006;2022-08-21T03:32:32;2.20;;;1.77;;
30519;SDS011;17300;50.374;8.006;2022-08-21T03:35:00;2.50;;;1.70;;
30519;SDS011;17300;50.374;8.006;2022-08-21T03:37:27;3.50;;;1.90;;
30519;SDS011;17300;50.374;8.006;2022-08-21T03:39:54;2.00;;;1.70;;
30519;SDS011;17300;50.374;8.006;2022-08-21T03:42:22;2.70;;;1.73;;
30519;SDS011;17300;50.374;8.006;2022-08-21T03:44:49;2.30;;;2.10;;
30519;SDS011;17300;50.374;8.006;2022-08-21T03:47:16;3.57;;;1.93;;
30519;SDS011;17300;50.374;8.006;2022-08-21T03:49:43;2.53;;;2.00;;
30519;SDS011;17300;50.374;8.006;2022-08-21T03:52:10;3.73;;;1.67;;
30519;SDS011;17300;50.374;8.006;2022-08-21T03:54:36;2.67;;;1.80;;
30519;SDS011;17300;50.374;8.006;2022-08-21T03:57:05;2.53;;;1.97;;
30519;SDS011;17300;50.374;8.006;2022-08-21T03:59:34;2.63;;;2.00;;
30519;SDS011;17300;50.374;8.006;2022-08-21T04:02:02;2.50;;;1.87;;
30519;SDS011;17300;50.374;8.006;2022-08-21T04:04:30;2.00;;;1.73;;
30519;SDS011;17300;50.374;8.006;2022-08-21T04:06:57;3.10;;;1.93;;
30519;SDS011;17300;50.374;8.006;2022-08-21T04:09:25;2.57;;;2.00;;
30519;SDS011;17300;50.374;8.006;2022-08-21T04:11:52;2.67;;;1.90;;
30519;SDS011;17300;50.374;8.006;2022-08-21T04:14:19;1.97;;;1.77;;
30519;SDS011;17300;50.374;8.006;2022-08-21T04:16:48;1.70;;;1.60;;
30519;SDS011;17300;50.374;8.006;2022-08-21T04:19:15;2.00;;;1.70;;
30519;SDS011;17300;50.374;8.006;2022-08-21T04:21:42;2.83;;;1.87;;
30519;SDS011;17300;50.374;8.006;2022-08-21T04:24:09;2.43;;;1.83;;
30519;SDS011;17300;50.374;8.006;2022-08-21T04:26:36;3.00;;;1.70;;
30519;SDS011;17300;50.374;8.006;2022-08-21T04:29:04;2.37;;;1.90;;
30519;SDS011;17300;50.374;8.006;2022-08-21T04:31:31;2.93;;;1.83;;
30519;SDS011;17300;50.374;8.006;2022-08-21T04:33:59;2.40;;;1.67;;
30519;SDS011;17300;50.374;8.006;2022-08-21T04:36:26;2.20;;;1.90;;
30519;SDS011;17300;50.374;8.006;2022-08-21T04:38:53;2.33;;;1.80;;
30519;SDS011;17300;50.374;8.006;2022-08-21T04:41:20;2.30;;;1.57;;
30519;SDS011;17300;50.374;8.006;2022-08-21T04:43:46;2.07;;;1.63;;
30519;SDS011;17300;50.374;8.006;2022-08-21T04:46:13;2.27;;;2.03;;
30519;SDS011;17300;50.374;8.006;2022-08-21T04:48:40;2.27;;;1.97;;
30519;SDS011;17300;50.374;8.006;2022-08-21T04:51:09;2.27;;;1.93;;
30519;SDS011;17300;50.374;8.006;2022-08-21T04:53:40;3.43;;;2.20;;
30519;SDS011;17300;50.374;8.006;2022-08-21T04:56:10;2.10;;;1.80;;
30519;SDS011;17300;50.374;8.006;2022-08-21T04:58:38;2.20;;;2.00;;
30519;SDS011;17300;50.374;8.006;2022-08-21T05:01:09;2.73;;;2.10;;
30519;SDS011;17300;50.374;8.006;2022-08-21T05:03:39;2.07;;;1.83;;
30519;SDS011;17300;50.374;8.006;2022-08-21T05:06:07;2.30;;;2.10;;
30519;SDS011;17300;50.374;8.006;2022-08-21T05:08:38;2.10;;;1.80;;
30519;SDS011;17300;50.374;8.006;2022-08-21T05:11:07;2.60;;;2.10;;
30519;SDS011;17300;50.374;8.006;2022-08-21T05:13:34;2.07;;;1.80;;
30519;SDS011;17300;50.374;8.006;2022-08-21T05:16:01;2.80;;;2.00;;
30519;SDS011;17300;50.374;8.006;2022-08-21T05:18:29;2.57;;;2.00;;
30519;SDS011;17300;50.374;8.006;2022-08-21T05:20:56;2.50;;;2.23;;
30519;SDS011;17300;50.374;8.006;2022-08-21T05:23:24;2.03;;;1.83;;
30519;SDS011;17300;50.374;8.006;2022-08-21T05:25:51;2.27;;;1.97;;
30519;SDS011;17300;50.374;8.006;2022-08-21T05:28:18;1.93;;;1.80;;
30519;SDS011;17300;50.374;8.006;2022-08-21T05:30:45;2.50;;;2.23;;
30519;SDS011;17300;50.374;8.006;2022-08-21T05:33:12;2.43;;;2.13;;
30519;SDS011;17300;50.374;8.006;2022-08-21T05:35:39;1.90;;;1.70;;
30519;SDS011;17300;50.374;8.006;2022-08-21T05:38:06;3.17;;;2.03;;
30519;SDS011;17300;50.374;8.006;2022-08-21T05:40:34;3.30;;;2.00;;
30519;SDS011;17300;50.374;8.006;2022-08-21T05:43:01;3.10;;;1.80;;
30519;SDS011;17300;50.374;8.006;2022-08-21T05:45:30;2.77;;;2.20;;
30519;SDS011;17300;50.374;8.006;2022-08-21T05:48:04;1.87;;;1.73;;
30519;SDS011;17300;50.374;8.006;2022-08-21T05:50:31;2.20;;;2.00;;
30519;SDS011;17300;50.374;8.006;2022-08-21T05:52:58;2.17;;;1.97;;
30519;SDS011;17300;50.374;8.006;2022-08-21T05:55:25;2.20;;;2.00;;
30519;SDS011;17300;50.374;8.006;2022-08-21T05:57:53;2.37;;;2.13;;
30519;SDS011;17300;50.374;8.006;2022-08-21T06:00:20;2.77;;;2.10;;
30519;SDS011;17300;50.374;8.006;2022-08-21T06:02:47;2.47;;;2.13;;
30519;SDS011;17300;50.374;8.006;2022-08-21T06:05:15;2.57;;;2.00;;
30519;SDS011;17300;50.374;8.006;2022-08-21T06:07:42;2.97;;;2.13;;
30519;SDS011;17300;50.374;8.006;2022-08-21T06:10:09;2.73;;;1.97;;
30519;SDS011;17300;50.374;8.006;2022-08-21T06:12:36;2.78;;;2.20;;
30519;SDS011;17300;50.374;8.006;2022-08-21T06:15:05;2.00;;;1.80;;
30519;SDS011;17300;50.374;8.006;2022-08-21T06:17:32;2.40;;;1.90;;
30519;SDS011;17300;50.374;8.006;2022-08-21T06:19:59;2.08;;;1.80;;
30519;SDS011;17300;50.374;8.006;2022-08-21T06:22:26;2.50;;;2.20;;
30519;SDS011;17300;50.374;8.006;2022-08-21T06:24:53;2.50;;;2.00;;
30519;SDS011;17300;50.374;8.006;2022-08-21T06:27:20;2.08;;;1.73;;
30519;SDS011;17300;50.374;8.006;2022-08-21T06:29:47;2.53;;;2.03;;
30519;SDS011;17300;50.374;8.006;2022-08-21T06:32:15;3.10;;;2.00;;
30519;SDS011;17300;50.374;8.006;2022-08-21T06:34:42;2.30;;;1.83;;
30519;SDS011;17300;50.374;8.006;2022-08-21T06:37:09;2.28;;;1.75;;
30519;SDS011;17300;50.374;8.006;2022-08-21T06:39:35;2.20;;;2.00;;
30519;SDS011;17300;50.374;8.006;2022-08-21T06:42:02;1.90;;;1.67;;
30519;SDS011;17300;50.374;8.006;2022-08-21T06:44:30;3.30;;;2.10;;
30519;SDS011;17300;50.374;8.006;2022-08-21T06:46:57;1.90;;;1.80;;
30519;SDS011;17300;50.374;8.006;2022-08-21T06:49:25;2.05;;;1.70;;
30519;SDS011;17300;50.374;8.006;2022-08-21T06:51:52;2.10;;;1.77;;
30519;SDS011;17300;50.374;8.006;2022-08-21T06:54:18;1.75;;;1.63;;
30519;SDS011;17300;50.374;8.006;2022-08-21T06:56:45;3.00;;;2.03;;
30519;SDS011;17300;50.374;8.006;2022-08-21T06:59:12;2.60;;;1.80;;
30519;SDS011;17300;50.374;8.006;2022-08-21T07:01:39;1.80;;;1.70;;
30519;SDS011;17300;50.374;8.006;2022-08-21T07:04:06;2.25;;;1.90;;
30519;SDS011;17300;50.374;8.006;2022-08-21T07:06:34;1.70;;;1.60;;
30519;SDS011;17300;50.374;8.006;2022-08-21T07:09:01;2.72;;;1.95;;
30519;SDS011;17300;50.374;8.006;2022-08-21T07:11:28;2.05;;;1.63;;
30519;SDS011;17300;50.374;8.006;2022-08-21T07:13:55;2.63;;;1.80;;
30519;SDS011;17300;50.374;8.006;2022-08-21T07:16:23;2.38;;;2.05;;
30519;SDS011;17300;50.374;8.006;2022-08-21T07:18:50;2.47;;;2.10;;
30519;SDS011;17300;50.374;8.006;2022-08-21T07:21:26;2.17;;;1.70;;
30519;SDS011;17300;50.374;8.006;2022-08-21T07:30:15;2.55;;;1.75;;
30519;SDS011;17300;50.374;8.006;2022-08-21T07:32:42;2.03;;;1.70;;
30519;SDS011;17300;50.374;8.006;2022-08-21T07:35:09;1.90;;;1.75;;
30519;SDS011;17300;50.374;8.006;2022-08-21T07:38:04;2.28;;;1.67;;
30519;SDS011;17300;50.374;8.006;2022-08-21T07:41:12;2.33;;;1.73;;
30519;SDS011;17300;50.374;8.006;2022-08-21T07:43:41;2.15;;;1.88;;
30519;SDS011;17300;50.374;8.006;2022-08-21T07:46:08;2.17;;;1.90;;
30519;SDS011;17300;50.374;8.006;2022-08-21T07:48:35;2.17;;;1.77;;
30519;SDS011;17300;50.374;8.006;2022-08-21T07:51:04;3.80;;;1.90;;
30519;SDS011;17300;50.374;8.006;2022-08-21T07:53:34;2.60;;;2.10;;
30519;SDS011;17300;50.374;8.006;2022-08-21T07:56:02;2.30;;;2.10;;
30519;SDS011;17300;50.374;8.006;2022-08-21T07:58:31;1.85;;;1.75;;
30519;SDS011;17300;50.374;8.006;2022-08-21T08:00:58;2.60;;;2.05;;
30519;SDS011;17300;50.374;8.006;2022-08-21T08:03:25;2.17;;;1.98;;
30519;SDS011;17300;50.374;8.006;2022-08-21T08:05:52;2.75;;;2.03;;
30519;SDS011;17300;50.374;8.006;2022-08-21T08:08:19;1.90;;;1.70;;
30519;SDS011;17300;50.374;8.006;2022-08-21T08:10:45;2.40;;;2.20;;
30519;SDS011;17300;50.374;8.006;2022-08-21T08:13:14;2.13;;;1.92;;
30519;SDS011;17300;50.374;8.006;2022-08-21T08:15:42;2.92;;;1.73;;
30519;SDS011;17300;50.374;8.006;2022-08-21T08:18:09;2.22;;;2.00;;
30519;SDS011;17300;50.374;8.006;2022-08-21T08:20:36;2.20;;;2.00;;
30519;SDS011;17300;50.374;8.006;2022-08-21T08:23:02;2.75;;;2.20;;
30519;SDS011;17300;50.374;8.006;2022-08-21T08:25:29;3.08;;;2.10;;
30519;SDS011;17300;50.374;8.006;2022-08-21T08:27:56;2.70;;;1.85;;
30519;SDS011;17300;50.374;8.006;2022-08-21T08:30:23;2.17;;;1.90;;
30519;SDS011;17300;50.374;8.006;2022-08-21T08:32:51;2.47;;;2.28;;
30519;SDS011;17300;50.374;8.006;2022-08-21T08:35:18;2.70;;;2.08;;
30519;SDS011;17300;50.374;8.006;2022-08-21T08:37:44;4.38;;;2.20;;
30519;SDS011;17300;50.374;8.006;2022-08-21T08:40:13;3.15;;;2.33;;
30519;SDS011;17300;50.374;8.006;2022-08-21T08:42:44;3.47;;;2.28;;
30519;SDS011;17300;50.374;8.006;2022-08-21T08:45:13;3.22;;;2.30;;
30519;SDS011;17300;50.374;8.006;2022-08-21T08:47:43;2.22;;;2.03;;
30519;SDS011;17300;50.374;8.006;2022-08-21T08:50:17;2.72;;;2.05;;
30519;SDS011;17300;50.374;8.006;2022-08-21T08:52:47;3.55;;;2.17;;
30519;SDS011;17300;50.374;8.006;2022-08-21T08:55:21;3.40;;;1.83;;
30519;SDS011;17300;50.374;8.006;2022-08-21T08:57:51;2.90;;;2.00;;
30519;SDS011;17300;50.374;8.006;2022-08-21T09:00:19;2.55;;;2.03;;
30519;SDS011;17300;50.374;8.006;2022-08-21T09:02:47;2.10;;;1.90;;
30519;SDS011;17300;50.374;8.006;2022-08-21T09:05:21;3.15;;;2.20;;
30519;SDS011;17300;50.374;8.006;2022-08-21T09:07:52;1.98;;;1.75;;
30519;SDS011;17300;50.374;8.006;2022-08-21T09:10:43;2.55;;;1.92;;
30519;SDS011;17300;50.374;8.006;2022-08-21T09:13:19;3.00;;;2.15;;
30519;SDS011;17300;50.374;8.006;2022-08-21T09:15:56;2.42;;;1.90;;
30519;SDS011;17300;50.374;8.006;2022-08-21T09:18:34;2.40;;;1.85;;
30519;SDS011;17300;50.374;8.006;2022-08-21T09:21:19;2.40;;;2.20;;
30519;SDS011;17300;50.374;8.006;2022-08-21T09:23:55;2.58;;;2.00;;
30519;SDS011;17300;50.374;8.006;2022-08-21T09:26:29;2.20;;;1.90;;
30519;SDS011;17300;50.374;8.006;2022-08-21T09:29:12;2.15;;;1.80;;
30519;SDS011;17300;50.374;8.006;2022-08-21T09:31:41;3.25;;;1.90;;
30519;SDS011;17300;50.374;8.006;2022-08-21T09:34:09;2.20;;;2.00;;
30519;SDS011;17300;50.374;8.006;2022-08-21T09:36:40;3.78;;;1.90;;
30519;SDS011;17300;50.374;8.006;2022-08-21T09:39:21;2.28;;;1.80;;
30519;SDS011;17300;50.374;8.006;2022-08-21T09:41:54;2.67;;;1.80;;
30519;SDS011;17300;50.374;8.006;2022-08-21T09:44:24;3.00;;;2.15;;
30519;SDS011;17300;50.374;8.006;2022-08-21T09:46:53;3.10;;;1.83;;
30519;SDS011;17300;50.374;8.006;2022-08-21T09:49:26;1.88;;;1.73;;
30519;SDS011;17300;50.374;8.006;2022-08-21T09:51:55;1.77;;;1.67;;
30519;SDS011;17300;50.374;8.006;2022-08-21T09:54:24;3.03;;;1.73;;
30519;SDS011;17300;50.374;8.006;2022-08-21T09:56:55;2.42;;;1.75;;
30519;SDS011;17300;50.374;8.006;2022-08-21T09:59:42;2.08;;;1.65;;
30519;SDS011;17300;50.374;8.006;2022-08-21T10:02:21;4.35;;;1.83;;
30519;SDS011;17300;50.374;8.006;2022-08-21T10:04:53;1.70;;;1.27;;
30519;SDS011;17300;50.374;8.006;2022-08-21T10:07:24;4.70;;;1.52;;
30519;SDS011;17300;50.374;8.006;2022-08-21T10:09:59;1.55;;;1.38;;
30519;SDS011;17300;50.374;8.006;2022-08-21T10:12:30;1.58;;;1.40;;
30519;SDS011;17300;50.374;8.006;2022-08-21T10:15:06;3.20;;;1.60;;
30519;SDS011;17300;50.374;8.006;2022-08-21T10:17:41;1.48;;;1.33;;
30519;SDS011;17300;50.374;8.006;2022-08-21T10:20:17;1.60;;;1.30;;
30519;SDS011;17300;50.374;8.006;2022-08-21T10:22:52;1.35;;;1.25;;
30519;SDS011;17300;50.374;8.006;2022-08-21T10:25:30;1.45;;;1.35;;
30519;SDS011;17300;50.374;8.006;2022-08-21T10:28:03;1.52;;;1.30;;
30519;SDS011;17300;50.374;8.006;2022-08-21T10:30:36;1.45;;;1.30;;
30519;SDS011;17300;50.374;8.006;2022-08-21T10:33:20;1.50;;;1.40;;
30519;SDS011;17300;50.374;8.006;2022-08-21T10:35:59;1.85;;;1.50;;
30519;SDS011;17300;50.374;8.006;2022-08-21T10:38:38;1.50;;;1.38;;
30519;SDS011;17300;50.374;8.006;2022-08-21T10:41:21;2.92;;;1.80;;
30519;SDS011;17300;50.374;8.006;2022-08-21T10:43:59;1.58;;;1.35;;
30519;SDS011;17300;50.374;8.006;2022-08-21T10:46:37;1.40;;;1.30;;
30519;SDS011;17300;50.374;8.006;2022-08-21T10:49:14;1.83;;;1.40;;
30519;SDS011;17300;50.374;8.006;2022-08-21T10:51:51;1.50;;;1.40;;
30519;SDS011;17300;50.374;8.006;2022-08-21T10:54:25;1.50;;;1.25;;
30519;SDS011;17300;50.374;8.006;2022-08-21T10:57:02;2.15;;;1.30;;
30519;SDS011;17300;50.374;8.006;2022-08-21T10:59:37;1.33;;;1.23;;
30519;SDS011;17300;50.374;8.006;2022-08-21T11:02:09;2.03;;;1.50;;
30519;SDS011;17300;50.374;8.006;2022-08-21T11:04:45;2.03;;;1.48;;
30519;SDS011;17300;50.374;8.006;2022-08-21T11:07:19;2.03;;;1.50;;
30519;SDS011;17300;50.374;8.006;2022-08-21T11:09:53;1.40;;;1.30;;
30519;SDS011;17300;50.374;8.006;2022-08-21T11:12:24;1.40;;;1.30;;
30519;SDS011;17300;50.374;8.006;2022-08-21T11:14:56;1.67;;;1.33;;
30519;SDS011;17300;50.374;8.006;2022-08-21T11:17:30;2.25;;;1.55;;
30519;SDS011;17300;50.374;8.006;2022-08-21T11:20:04;1.40;;;1.20;;
30519;SDS011;17300;50.374;8.006;2022-08-21T11:22:38;3.25;;;1.92;;
30519;SDS011;17300;50.374;8.006;2022-08-21T11:25:14;1.40;;;1.27;;
30519;SDS011;17300;50.374;8.006;2022-08-21T11:27:49;1.73;;;1.63;;
30519;SDS011;17300;50.374;8.006;2022-08-21T11:30:19;1.50;;;1.40;;
30519;SDS011;17300;50.374;8.006;2022-08-21T11:32:52;1.10;;;1.00;;
30519;SDS011;17300;50.374;8.006;2022-08-21T11:35:39;1.00;;;0.95;;
30519;SDS011;17300;50.374;8.006;2022-08-21T11:38:20;1.75;;;1.30;;
30519;SDS011;17300;50.374;8.006;2022-08-21T11:41:02;1.52;;;0.90;;
30519;SDS011;17300;50.374;8.006;2022-08-21T11:43:38;1.15;;;0.82;;
30519;SDS011;17300;50.374;8.006;2022-08-21T11:46:16;1.90;;;1.05;;
30519;SDS011;17300;50.374;8.006;2022-08-21T11:48:56;1.10;;;1.00;;
30519;SDS011;17300;50.374;8.006;2022-08-21T11:51:33;1.17;;;0.98;;
30519;SDS011;17300;50.374;8.006;2022-08-21T11:54:05;1.52;;;1.30;;
30519;SDS011;17300;50.374;8.006;2022-08-21T11:56:39;0.95;;;0.90;;
30519;SDS011;17300;50.374;8.006;2022-08-21T11:59:10;1.23;;;1.00;;
30519;SDS011;17300;50.374;8.006;2022-08-21T12:01:45;1.15;;;1.00;;
30519;SDS011;17300;50.374;8.006;2022-08-21T12:04:17;1.10;;;1.00;;
30519;SDS011;17300;50.374;8.006;2022-08-21T12:06:48;1.08;;;0.98;;
30519;SDS011;17300;50.374;8.006;2022-08-21T12:09:28;1.27;;;1.10;;
30519;SDS011;17300;50.374;8.006;2022-08-21T12:12:02;1.60;;;1.20;;
30519;SDS011;17300;50.374;8.006;2022-08-21T12:14:35;1.38;;;1.27;;
30519;SDS011;17300;50.374;8.006;2022-08-21T12:17:04;1.70;;;1.40;;
30519;SDS011;17300;50.374;8.006;2022-08-21T12:19:32;1.40;;;1.10;;
30519;SDS011;17300;50.374;8.006;2022-08-21T12:22:07;1.15;;;0.90;;
30519;SDS011;17300;50.374;8.006;2022-08-21T12:24:36;1.67;;;1.13;;
30519;SDS011;17300;50.374;8.006;2022-08-21T12:27:17;1.00;;;0.85;;
30519;SDS011;17300;50.374;8.006;2022-08-21T12:29:51;1.15;;;0.82;;
30519;SDS011;17300;50.374;8.006;2022-08-21T12:32:23;1.30;;;1.02;;
30519;SDS011;17300;50.374;8.006;2022-08-21T12:34:53;2.90;;;0.90;;
30519;SDS011;17300;50.374;8.006;2022-08-21T12:37:25;1.50;;;1.00;;
30519;SDS011;17300;50.374;8.006;2022-08-21T12:40:03;1.35;;;0.93;;
30519;SDS011;17300;50.374;8.006;2022-08-21T12:42:39;2.08;;;0.98;;
30519;SDS011;17300;50.374;8.006;2022-08-21T12:45:14;1.83;;;1.00;;
30519;SDS011;17300;50.374;8.006;2022-08-21T12:47:47;1.48;;;1.00;;
30519;SDS011;17300;50.374;8.006;2022-08-21T12:50:18;1.70;;;1.02;;
30519;SDS011;17300;50.374;8.006;2022-08-21T12:52:49;2.03;;;1.10;;
30519;SDS011;17300;50.374;8.006;2022-08-21T12:55:25;1.20;;;1.00;;
30519;SDS011;17300;50.374;8.006;2022-08-21T12:57:59;1.65;;;1.10;;
30519;SDS011;17300;50.374;8.006;2022-08-21T13:00:27;1.67;;;0.90;;
30519;SDS011;17300;50.374;8.006;2022-08-21T13:02:55;1.13;;;1.02;;
30519;SDS011;17300;50.374;8.006;2022-08-21T13:05:27;1.20;;;0.95;;
30519;SDS011;17300;50.374;8.006;2022-08-21T13:07:57;0.88;;;0.88;;
30519;SDS011;17300;50.374;8.006;2022-08-21T13:10:25;0.80;;;0.80;;
30519;SDS011;17300;50.374;8.006;2022-08-21T13:12:58;1.00;;;0.80;;
30519;SDS011;17300;50.374;8.006;2022-08-21T13:15:30;1.27;;;1.00;;
30519;SDS011;17300;50.374;8.006;2022-08-21T13:17:59;1.05;;;0.70;;
30519;SDS011;17300;50.374;8.006;2022-08-21T13:20:35;0.70;;;0.70;;
30519;SDS011;17300;50.374;8.006;2022-08-21T13:23:06;1.77;;;0.90;;
30519;SDS011;17300;50.374;8.006;2022-08-21T13:25:41;1.27;;;0.93;;
30519;SDS011;17300;50.374;8.006;2022-08-21T13:28:11;0.90;;;0.77;;
30519;SDS011;17300;50.374;8.006;2022-08-21T13:30:40;1.13;;;0.70;;
30519;SDS011;17300;50.374;8.006;2022-08-21T13:33:09;1.45;;;0.90;;
30519;SDS011;17300;50.374;8.006;2022-08-21T13:35:45;0.93;;;0.77;;
30519;SDS011;17300;50.374;8.006;2022-08-21T13:38:14;2.38;;;1.10;;
30519;SDS011;17300;50.374;8.006;2022-08-21T13:40:44;0.80;;;0.80;;
30519;SDS011;17300;50.374;8.006;2022-08-21T13:43:17;0.88;;;0.80;;
30519;SDS011;17300;50.374;8.006;2022-08-21T13:45:47;0.80;;;0.80;;
30519;SDS011;17300;50.374;8.006;2022-08-21T13:48:19;1.25;;;1.10;;
30519;SDS011;17300;50.374;8.006;2022-08-21T13:50:48;1.58;;;0.90;;
30519;SDS011;17300;50.374;8.006;2022-08-21T13:53:26;1.10;;;1.00;;
30519;SDS011;17300;50.374;8.006;2022-08-21T13:55:56;1.42;;;0.90;;
30519;SDS011;17300;50.374;8.006;2022-08-21T13:58:26;1.35;;;1.00;;
30519;SDS011;17300;50.374;8.006;2022-08-21T14:00:55;1.20;;;1.10;;
30519;SDS011;17300;50.374;8.006;2022-08-21T14:03:25;1.40;;;1.10;;
30519;SDS011;17300;50.374;8.006;2022-08-21T14:05:54;1.45;;;0.88;;
30519;SDS011;17300;50.374;8.006;2022-08-21T14:08:23;1.10;;;1.00;;
30519;SDS011;17300;50.374;8.006;2022-08-21T14:10:55;1.02;;;0.90;;
30519;SDS011;17300;50.374;8.006;2022-08-21T14:13:28;0.80;;;0.77;;
30519;SDS011;17300;50.374;8.006;2022-08-21T14:16:10;0.95;;;0.80;;
30519;SDS011;17300;50.374;8.006;2022-08-21T14:18:43;1.23;;;0.77;;
30519;SDS011;17300;50.374;8.006;2022-08-21T14:21:11;1.20;;;1.05;;
30519;SDS011;17300;50.374;8.006;2022-08-21T14:23:38;1.92;;;0.98;;
30519;SDS011;17300;50.374;8.006;2022-08-21T14:26:06;1.77;;;1.00;;
30519;SDS011;17300;50.374;8.006;2022-08-21T14:28:37;1.60;;;1.15;;
30519;SDS011;17300;50.374;8.006;2022-08-21T14:31:13;1.50;;;1.08;;
30519;SDS011;17300;50.374;8.006;2022-08-21T14:33:44;1.02;;;0.90;;
30519;SDS011;17300;50.374;8.006;2022-08-21T14:36:11;1.13;;;0.80;;
30519;SDS011;17300;50.374;8.006;2022-08-21T14:38:39;1.13;;;0.85;;
30519;SDS011;17300;50.374;8.006;2022-08-21T14:41:08;1.10;;;1.00;;
30519;SDS011;17300;50.374;8.006;2022-08-21T14:43:47;1.30;;;1.00;;
30519;SDS011;17300;50.374;8.006;2022-08-21T14:46:16;0.80;;;0.80;;
30519;SDS011;17300;50.374;8.006;2022-08-21T14:48:47;2.28;;;1.00;;
30519;SDS011;17300;50.374;8.006;2022-08-21T14:51:14;1.25;;;0.90;;
30519;SDS011;17300;50.374;8.006;2022-08-21T14:53:41;0.93;;;0.80;;
30519;SDS011;17300;50.374;8.006;2022-08-21T14:56:08;1.13;;;1.02;;
30519;SDS011;17300;50.374;8.006;2022-08-21T14:58:36;2.38;;;1.27;;
30519;SDS011;17300;50.374;8.006;2022-08-21T15:01:07;2.75;;;0.88;;
30519;SDS011;17300;50.374;8.006;2022-08-21T15:03:35;1.13;;;0.93;;
30519;SDS011;17300;50.374;8.006;2022-08-21T15:06:04;1.35;;;0.85;;
30519;SDS011;17300;50.374;8.006;2022-08-21T15:08:32;1.30;;;0.82;;
30519;SDS011;17300;50.374;8.006;2022-08-21T15:10:59;1.17;;;0.80;;
30519;SDS011;17300;50.374;8.006;2022-08-21T15:13:27;1.55;;;1.08;;